createdAt,value
2018-10-06T00:00:15.905Z,1.77
2018-10-06T00:02:44.196Z,1.07
2018-10-06T00:05:12.359Z,1.40
2018-10-06T00:07:40.524Z,2.20
2018-10-06T00:10:08.702Z,1.52
2018-10-06T00:12:36.847Z,1.55
2018-10-06T00:15:05.139Z,1.65
2018-10-06T00:17:33.367Z,1.25
2018-10-06T00:20:01.532Z,1.90
2018-10-06T00:22:29.783Z,1.55
2018-10-06T00:24:57.964Z,2.00
2018-10-06T00:27:27.837Z,1.35
2018-10-06T00:29:56.599Z,1.40
2018-10-06T00:32:25.209Z,1.52
2018-10-06T00:34:53.367Z,1.67
2018-10-06T00:37:21.523Z,2.12
2018-10-06T00:39:49.675Z,1.55
2018-10-06T00:42:17.955Z,1.15
2018-10-06T00:44:46.176Z,1.60
2018-10-06T00:47:14.413Z,2.27
2018-10-06T00:49:42.588Z,1.55
2018-10-06T00:52:10.735Z,1.55
2018-10-06T00:54:38.919Z,1.98
2018-10-06T00:57:07.251Z,1.70
2018-10-06T00:59:35.424Z,1.92
2018-10-06T01:02:03.575Z,2.00
2018-10-06T01:04:32.316Z,2.02
2018-10-06T01:07:00.666Z,1.10
2018-10-06T01:09:28.819Z,1.47
2018-10-06T01:11:56.987Z,2.10
2018-10-06T01:14:25.147Z,1.75
2018-10-06T01:16:53.299Z,1.40
2018-10-06T01:19:21.456Z,1.82
2018-10-06T01:21:49.841Z,1.80
2018-10-06T01:24:17.995Z,1.40
2018-10-06T01:26:46.139Z,1.45
2018-10-06T01:29:14.308Z,1.95
2018-10-06T01:31:42.473Z,1.37
2018-10-06T01:34:10.637Z,1.52
2018-10-06T01:36:38.829Z,1.80
2018-10-06T01:39:07.382Z,1.70
2018-10-06T01:41:35.749Z,1.82
2018-10-06T01:44:03.900Z,1.10
2018-10-06T01:46:32.055Z,1.55
2018-10-06T01:49:00.203Z,1.45
2018-10-06T01:51:28.380Z,1.15
2018-10-06T01:53:56.527Z,1.80
2018-10-06T01:56:24.959Z,1.40
2018-10-06T01:58:53.576Z,1.70
2018-10-06T02:01:21.739Z,1.77
2018-10-06T02:03:49.896Z,1.80
2018-10-06T02:06:18.068Z,1.40
2018-10-06T02:08:46.340Z,1.70
2018-10-06T02:11:14.504Z,1.62
2018-10-06T02:13:42.676Z,1.22
2018-10-06T02:16:11.099Z,1.37
2018-10-06T02:18:39.292Z,1.40
2018-10-06T02:21:07.456Z,2.05
2018-10-06T02:23:35.838Z,1.50
2018-10-06T02:26:04.034Z,1.50
2018-10-06T02:28:32.555Z,1.15
2018-10-06T02:31:00.695Z,1.25
2018-10-06T02:33:28.847Z,1.32
2018-10-06T02:35:56.991Z,1.80
2018-10-06T02:38:25.531Z,1.25
2018-10-06T02:40:53.861Z,1.62
2018-10-06T02:43:22.008Z,1.40
2018-10-06T02:45:50.185Z,2.55
2018-10-06T02:48:18.580Z,1.52
2018-10-06T02:50:47.448Z,1.45
2018-10-06T02:53:16.060Z,1.20
2018-10-06T02:55:44.208Z,1.55
2018-10-06T02:58:12.364Z,1.77
2018-10-06T03:00:40.520Z,1.30
2018-10-06T03:03:08.679Z,2.33
2018-10-06T03:05:36.835Z,1.40
2018-10-06T03:08:04.991Z,1.42
2018-10-06T03:10:33.191Z,1.00
2018-10-06T03:13:01.403Z,1.12
2018-10-06T03:15:29.804Z,1.40
2018-10-06T03:17:57.957Z,1.75
2018-10-06T03:20:26.111Z,1.40
2018-10-06T03:22:54.355Z,2.08
2018-10-06T03:25:22.510Z,1.20
2018-10-06T03:27:50.655Z,1.80
2018-10-06T03:30:18.982Z,1.60
2018-10-06T03:32:47.219Z,1.98
2018-10-06T03:35:15.608Z,1.10
2018-10-06T03:37:43.768Z,1.60
2018-10-06T03:40:11.915Z,1.07
2018-10-06T03:42:40.223Z,1.45
2018-10-06T03:45:09.226Z,1.40
2018-10-06T03:47:37.371Z,1.40
2018-10-06T03:50:06.008Z,1.30
2018-10-06T03:52:34.167Z,1.70
2018-10-06T03:55:02.395Z,1.87
2018-10-06T03:57:30.645Z,1.37
2018-10-06T03:59:58.792Z,1.25
2018-10-06T04:02:26.947Z,1.77
2018-10-06T04:04:55.112Z,2.10
2018-10-06T04:07:23.285Z,1.35
2018-10-06T04:09:51.807Z,1.57
2018-10-06T04:12:19.956Z,1.85
2018-10-06T04:14:48.116Z,2.10
2018-10-06T04:17:16.720Z,1.20
2018-10-06T04:19:44.888Z,1.70
2018-10-06T04:22:13.600Z,1.40
2018-10-06T04:24:41.948Z,1.67
2018-10-06T04:27:10.100Z,1.40
2018-10-06T04:29:38.332Z,1.72
2018-10-06T04:32:06.724Z,1.50
2018-10-06T04:34:34.923Z,1.90
2018-10-06T04:37:03.079Z,1.50
2018-10-06T04:39:31.548Z,2.10
2018-10-06T04:42:00.161Z,1.65
2018-10-06T04:44:28.364Z,1.47
2018-10-06T04:46:56.519Z,1.10
2018-10-06T04:49:24.672Z,1.15
2018-10-06T04:51:52.923Z,1.45
2018-10-06T04:54:21.074Z,1.12
2018-10-06T04:56:49.468Z,1.30
2018-10-06T04:59:17.653Z,1.65
2018-10-06T05:01:45.814Z,1.40
2018-10-06T05:04:14.070Z,1.95
2018-10-06T05:06:42.228Z,1.87
2018-10-06T05:09:10.407Z,2.00
2018-10-06T05:11:38.585Z,1.65
2018-10-06T05:14:06.750Z,1.20
2018-10-06T05:16:35.375Z,2.83
2018-10-06T05:19:03.523Z,1.57
2018-10-06T05:21:31.976Z,1.92
2018-10-06T05:24:00.132Z,1.62
2018-10-06T05:26:28.445Z,2.10
2018-10-06T05:28:57.428Z,1.98
2018-10-06T05:31:25.856Z,2.00
2018-10-06T05:33:54.012Z,1.40
2018-10-06T05:36:22.371Z,2.85
2018-10-06T05:38:50.603Z,2.15
2018-10-06T05:41:18.790Z,2.72
2018-10-06T05:43:47.203Z,3.12
2018-10-06T05:46:15.369Z,2.05
2018-10-06T05:48:43.568Z,3.15
2018-10-06T05:51:11.958Z,4.55
2018-10-06T05:53:40.151Z,3.35
2018-10-06T05:56:08.584Z,1.60
2018-10-06T05:58:36.750Z,1.60
2018-10-06T06:01:04.920Z,2.22
2018-10-06T06:03:33.147Z,2.50
2018-10-06T06:06:01.319Z,2.00
2018-10-06T06:08:29.840Z,1.50
2018-10-06T06:10:58.006Z,1.25
2018-10-06T06:13:26.331Z,2.05
2018-10-06T06:15:54.491Z,1.90
2018-10-06T06:18:22.660Z,7.12
2018-10-06T06:20:51.275Z,7.75
2018-10-06T06:23:19.449Z,11.78
2018-10-06T06:25:47.624Z,3.40
2018-10-06T06:28:16.175Z,2.90
2018-10-06T06:30:44.383Z,6.03
2018-10-06T06:33:12.548Z,4.33
2018-10-06T06:35:41.016Z,6.45
2018-10-06T06:38:09.198Z,4.42
2018-10-06T06:40:37.332Z,5.22
2018-10-06T06:43:05.951Z,14.53
2018-10-06T06:45:34.447Z,9.00
2018-10-06T06:48:02.620Z,4.33
2018-10-06T06:50:30.771Z,16.73
2018-10-06T06:52:58.941Z,14.58
2018-10-06T06:55:27.089Z,10.23
2018-10-06T06:57:55.493Z,3.50
2018-10-06T07:00:23.659Z,2.15
2018-10-06T07:02:51.968Z,2.52
2018-10-06T07:05:22.597Z,4.20
2018-10-06T07:07:51.075Z,4.35
2018-10-06T07:10:19.275Z,3.08
2018-10-06T07:12:47.425Z,3.52
2018-10-06T07:15:15.711Z,2.50
2018-10-06T07:17:43.886Z,2.15
2018-10-06T07:20:12.097Z,4.90
2018-10-06T07:22:40.255Z,5.90
2018-10-06T07:25:08.604Z,5.00
2018-10-06T07:27:36.812Z,8.90
2018-10-06T07:30:05.040Z,2.92
2018-10-06T07:32:33.187Z,2.10
2018-10-06T07:35:01.331Z,1.75
2018-10-06T07:37:29.511Z,8.08
2018-10-06T07:39:57.666Z,5.80
2018-10-06T07:42:25.807Z,2.80
2018-10-06T07:44:54.028Z,3.27
2018-10-06T07:47:22.133Z,2.10
2018-10-06T07:49:50.492Z,1.65
2018-10-06T07:52:18.732Z,1.42
2018-10-06T07:54:46.891Z,1.55
2018-10-06T07:57:15.058Z,1.62
2018-10-06T07:59:43.292Z,1.65
2018-10-06T08:02:11.700Z,1.25
2018-10-06T08:04:39.945Z,1.37
2018-10-06T08:07:08.484Z,1.47
2018-10-06T08:09:36.705Z,1.70
2018-10-06T08:12:04.907Z,1.30
2018-10-06T08:14:33.126Z,1.40
2018-10-06T08:17:01.312Z,1.77
2018-10-06T08:19:29.906Z,1.40
2018-10-06T08:21:58.247Z,1.80
2018-10-06T08:24:26.463Z,2.25
2018-10-06T08:26:55.416Z,1.70
2018-10-06T08:29:23.856Z,2.35
2018-10-06T08:31:52.085Z,3.20
2018-10-06T08:34:20.371Z,1.98
2018-10-06T08:36:48.612Z,1.40
2018-10-06T08:39:17.684Z,1.30
2018-10-06T08:41:45.835Z,1.90
2018-10-06T08:44:13.986Z,1.90
2018-10-06T08:46:42.157Z,1.27
2018-10-06T08:49:10.308Z,1.55
2018-10-06T08:51:38.484Z,1.35
2018-10-06T08:54:06.815Z,1.10
2018-10-06T08:56:34.971Z,1.20
2018-10-06T08:59:03.169Z,1.95
2018-10-06T09:01:31.600Z,1.70
2018-10-06T09:04:00.379Z,1.45
2018-10-06T09:06:28.558Z,2.30
2018-10-06T09:08:56.706Z,1.40
2018-10-06T09:11:24.859Z,1.50
2018-10-06T09:13:53.008Z,2.05
2018-10-06T09:16:21.167Z,1.27
2018-10-06T09:18:49.539Z,1.22
2018-10-06T09:21:17.759Z,2.05
2018-10-06T09:23:45.908Z,1.80
2018-10-06T09:26:14.075Z,1.40
2018-10-06T09:28:42.232Z,1.92
2018-10-06T09:31:10.623Z,1.60
2018-10-06T09:33:38.961Z,1.52
2018-10-06T09:36:07.240Z,1.65
2018-10-06T09:38:35.524Z,1.50
2018-10-06T09:41:03.784Z,1.12
2018-10-06T09:43:31.951Z,1.70
2018-10-06T09:46:00.130Z,1.62
2018-10-06T09:48:28.320Z,1.67
2018-10-06T09:50:56.708Z,2.00
2018-10-06T09:53:24.896Z,1.57
2018-10-06T09:55:53.049Z,1.00
2018-10-06T09:58:21.629Z,1.55
2018-10-06T10:03:01.739Z,1.62
2018-10-06T10:05:35.595Z,2.00
2018-10-06T10:08:03.775Z,2.05
2018-10-06T10:10:32.379Z,1.32
2018-10-06T10:13:00.591Z,1.15
2018-10-06T10:15:28.806Z,1.32
2018-10-06T10:17:57.230Z,2.45
2018-10-06T10:20:25.580Z,2.20
2018-10-06T10:22:53.885Z,1.60
2018-10-06T10:25:23.004Z,1.45
2018-10-06T10:27:51.179Z,1.67
2018-10-06T10:30:19.319Z,1.42
2018-10-06T10:32:47.527Z,2.05
2018-10-06T10:35:15.756Z,1.90
2018-10-06T10:37:43.899Z,3.45
2018-10-06T10:40:12.059Z,1.80
2018-10-06T10:42:40.388Z,1.87
2018-10-06T10:45:08.532Z,1.90
2018-10-06T10:47:36.672Z,1.75
2018-10-06T10:50:04.855Z,1.80
2018-10-06T10:52:33.042Z,2.80
2018-10-06T10:55:01.216Z,1.50
2018-10-06T10:57:29.703Z,1.20
2018-10-06T10:59:58.106Z,1.45
2018-10-06T11:02:25.991Z,1.60
2018-10-06T11:04:54.474Z,1.85
2018-10-06T11:07:22.656Z,1.50
2018-10-06T11:09:51.275Z,1.60
2018-10-06T11:12:19.489Z,1.47
2018-10-06T11:14:47.855Z,1.80
2018-10-06T11:17:16.346Z,1.00
2018-10-06T11:19:44.527Z,1.75
2018-10-06T11:22:12.687Z,1.32
2018-10-06T11:24:40.916Z,1.32
2018-10-06T11:27:09.072Z,2.08
2018-10-06T11:29:37.235Z,1.22
2018-10-06T11:32:05.379Z,1.30
2018-10-06T11:34:34.048Z,1.27
2018-10-06T11:37:02.199Z,1.52
2018-10-06T11:39:30.344Z,1.42
2018-10-06T11:41:58.483Z,0.90
2018-10-06T11:44:26.652Z,1.30
2018-10-06T11:46:54.948Z,1.30
2018-10-06T11:49:23.111Z,1.40
2018-10-06T11:51:51.716Z,1.40
2018-10-06T11:54:19.892Z,1.80
2018-10-06T11:56:48.057Z,1.25
2018-10-06T11:59:16.236Z,1.35
2018-10-06T12:01:44.379Z,1.67
2018-10-06T12:04:12.531Z,1.35
2018-10-06T12:06:40.683Z,1.20
2018-10-06T12:09:09.219Z,1.50
2018-10-06T12:11:37.709Z,3.10
2018-10-06T12:14:05.903Z,2.25
2018-10-06T12:16:34.128Z,2.17
2018-10-06T12:19:02.424Z,2.22
2018-10-06T12:21:30.591Z,1.90
2018-10-06T12:23:58.764Z,1.07
2018-10-06T12:26:26.936Z,1.32
2018-10-06T12:28:55.348Z,1.42
2018-10-06T12:31:23.507Z,1.52
2018-10-06T12:33:51.660Z,2.62
2018-10-06T12:36:19.816Z,1.67
2018-10-06T12:38:48.135Z,1.07
2018-10-06T12:41:16.295Z,1.32
2018-10-06T12:43:44.455Z,1.90
2018-10-06T12:46:12.876Z,1.52
2018-10-06T12:48:41.283Z,1.40
2018-10-06T12:51:09.483Z,2.05
2018-10-06T12:53:37.645Z,1.35
2018-10-06T12:56:06.563Z,1.15
2018-10-06T12:58:34.739Z,1.70
2018-10-06T13:01:02.947Z,1.35
2018-10-06T13:03:31.118Z,1.27
2018-10-06T13:05:59.315Z,1.15
2018-10-06T13:08:27.611Z,1.17
2018-10-06T13:10:55.763Z,1.22
2018-10-06T13:13:23.996Z,1.17
2018-10-06T13:15:52.274Z,1.57
2018-10-06T13:18:20.428Z,1.50
2018-10-06T13:20:48.589Z,2.17
2018-10-06T13:23:16.775Z,1.55
2018-10-06T13:25:45.039Z,1.40
2018-10-06T13:28:13.183Z,1.42
2018-10-06T13:30:41.332Z,1.85
2018-10-06T13:33:09.483Z,1.40
2018-10-06T13:35:37.771Z,2.05
2018-10-06T13:38:05.939Z,1.30
2018-10-06T13:40:34.096Z,1.30
2018-10-06T13:43:02.632Z,1.50
2018-10-06T13:45:30.788Z,1.45
2018-10-06T13:47:58.992Z,1.40
2018-10-06T13:50:27.143Z,1.10
2018-10-06T13:52:55.317Z,1.40
2018-10-06T13:55:23.479Z,1.30
2018-10-06T13:57:52.232Z,1.40
2018-10-06T14:00:21.260Z,1.22
2018-10-06T14:02:49.446Z,1.00
2018-10-06T14:05:17.592Z,1.30
2018-10-06T14:07:45.752Z,1.40
2018-10-06T14:10:13.935Z,1.10
2018-10-06T14:12:42.080Z,2.08
2018-10-06T14:15:10.236Z,1.20
2018-10-06T14:17:38.508Z,1.17
2018-10-06T14:20:06.715Z,1.22
2018-10-06T14:22:34.878Z,1.20
2018-10-06T14:25:03.293Z,1.32
2018-10-06T14:27:31.444Z,1.25
2018-10-06T14:29:59.676Z,1.17
2018-10-06T14:32:27.845Z,1.27
2018-10-06T14:34:56.027Z,1.20
2018-10-06T14:37:24.200Z,1.05
2018-10-06T14:39:52.366Z,1.20
2018-10-06T14:42:21.147Z,1.10
2018-10-06T14:44:49.304Z,1.10
2018-10-06T14:47:17.610Z,1.30
2018-10-06T14:49:45.647Z,2.12
2018-10-06T14:52:13.821Z,2.10
2018-10-06T14:54:42.009Z,1.60
2018-10-06T14:57:10.186Z,8.78
2018-10-06T14:59:38.667Z,4.45
2018-10-06T15:02:06.821Z,2.10
2018-10-06T15:04:35.004Z,1.22
2018-10-06T15:07:03.175Z,1.22
2018-10-06T15:09:31.331Z,1.60
2018-10-06T15:12:00.044Z,1.12
2018-10-06T15:14:28.203Z,0.93
2018-10-06T15:16:56.367Z,1.05
2018-10-06T15:19:24.539Z,1.80
2018-10-06T15:21:52.688Z,1.77
2018-10-06T15:24:20.839Z,1.70
2018-10-06T15:26:49.004Z,1.05
2018-10-06T15:29:17.344Z,1.50
2018-10-06T15:31:45.504Z,1.37
2018-10-06T15:34:14.195Z,1.52
2018-10-06T15:36:42.430Z,1.60
2018-10-06T15:39:10.645Z,1.20
2018-10-06T15:41:39.443Z,1.45
2018-10-06T15:44:07.645Z,1.47
2018-10-06T15:46:35.988Z,1.85
2018-10-06T15:49:04.143Z,2.10
2018-10-06T15:51:32.554Z,1.35
2018-10-06T15:54:00.799Z,1.20
2018-10-06T15:56:28.972Z,1.20
2018-10-06T15:58:57.146Z,2.30
2018-10-06T16:01:25.644Z,2.10
2018-10-06T16:03:53.804Z,2.05
2018-10-06T16:06:22.168Z,1.42
2018-10-06T16:08:50.947Z,1.77
2018-10-06T16:11:19.156Z,2.42
2018-10-06T16:13:47.325Z,1.77
2018-10-06T16:16:15.535Z,2.10
2018-10-06T16:18:44.327Z,2.02
2018-10-06T16:21:12.496Z,2.50
2018-10-06T16:23:40.659Z,2.15
2018-10-06T16:26:09.227Z,1.98
2018-10-06T16:28:37.392Z,3.00
2018-10-06T16:31:06.271Z,3.72
2018-10-06T16:33:34.492Z,4.20
2018-10-06T16:36:03.114Z,3.72
2018-10-06T16:38:31.300Z,3.20
2018-10-06T16:40:59.460Z,3.12
2018-10-06T16:43:27.613Z,2.37
2018-10-06T16:45:55.798Z,1.65
2018-10-06T16:48:24.061Z,2.35
2018-10-06T16:50:52.211Z,1.72
2018-10-06T16:53:20.374Z,1.47
2018-10-06T16:55:48.569Z,2.00
2018-10-06T16:58:16.763Z,2.33
2018-10-06T17:00:45.203Z,2.58
2018-10-06T17:03:13.355Z,2.47
2018-10-06T17:05:41.511Z,1.95
2018-10-06T17:08:09.964Z,2.00
2018-10-06T17:10:38.116Z,1.90
2018-10-06T17:13:06.287Z,1.52
2018-10-06T17:15:34.432Z,1.27
2018-10-06T17:18:03.419Z,1.87
2018-10-06T17:20:31.818Z,3.02
2018-10-06T17:23:00.000Z,2.58
2018-10-06T17:25:28.271Z,2.20
2018-10-06T17:27:56.484Z,1.92
2018-10-06T17:30:24.700Z,2.47
2018-10-06T17:32:53.084Z,2.67
2018-10-06T17:35:21.256Z,2.75
2018-10-06T17:37:49.681Z,4.97
2018-10-06T17:40:18.403Z,7.70
2018-10-06T17:42:46.639Z,5.87
2018-10-06T17:45:14.840Z,2.92
2018-10-06T17:47:43.079Z,3.72
2018-10-06T17:50:12.011Z,2.62
2018-10-06T17:52:40.087Z,2.72
2018-10-06T17:55:08.842Z,3.50
2018-10-06T17:57:37.567Z,4.17
2018-10-06T18:00:05.924Z,2.52
2018-10-06T18:02:34.080Z,1.47
2018-10-06T18:05:02.296Z,2.55
2018-10-06T18:07:30.472Z,1.65
2018-10-06T18:09:58.619Z,2.10
2018-10-06T18:12:26.997Z,1.80
2018-10-06T18:14:55.160Z,1.35
2018-10-06T18:17:23.343Z,1.72
2018-10-06T18:19:51.509Z,1.80
2018-10-06T18:22:20.291Z,2.05
2018-10-06T18:24:48.569Z,1.70
2018-10-06T18:27:17.056Z,1.22
2018-10-06T18:29:45.752Z,1.87
2018-10-06T18:32:13.892Z,2.10
2018-10-06T18:34:42.047Z,1.10
2018-10-06T18:37:10.727Z,2.25
2018-10-06T18:39:38.852Z,1.92
2018-10-06T18:42:07.267Z,1.47
2018-10-06T18:44:35.415Z,1.75
2018-10-06T18:47:03.600Z,1.77
2018-10-06T18:49:31.755Z,1.52
2018-10-06T18:51:59.995Z,1.60
2018-10-06T18:54:28.178Z,1.85
2018-10-06T18:56:56.998Z,1.77
2018-10-06T18:59:25.530Z,1.10
2018-10-06T19:01:53.928Z,1.70
2018-10-06T19:04:22.345Z,1.30
2018-10-06T19:06:50.475Z,1.75
2018-10-06T19:09:18.642Z,1.62
2018-10-06T19:11:47.363Z,1.67
2018-10-06T19:14:15.516Z,2.20
2018-10-06T19:16:43.659Z,1.57
2018-10-06T19:19:12.193Z,1.45
2018-10-06T19:21:40.347Z,1.65
2018-10-06T19:24:08.558Z,1.70
2018-10-06T19:26:36.714Z,1.70
2018-10-06T19:29:05.295Z,1.92
2018-10-06T19:31:33.504Z,1.60
2018-10-06T19:34:01.655Z,1.90
2018-10-06T19:36:29.827Z,1.45
2018-10-06T19:38:57.979Z,1.60
2018-10-06T19:41:26.273Z,1.30
2018-10-06T19:43:54.618Z,1.70
2018-10-06T19:46:22.799Z,1.10
2018-10-06T19:48:51.174Z,1.30
2018-10-06T19:51:19.327Z,1.30
2018-10-06T19:53:47.854Z,1.30
2018-10-06T19:56:16.036Z,1.72
2018-10-06T19:58:44.338Z,1.60
2018-10-06T20:01:12.959Z,2.00
2018-10-06T20:03:41.635Z,1.40
2018-10-06T20:06:09.756Z,1.70
2018-10-06T20:08:38.427Z,1.75
2018-10-06T20:11:07.759Z,1.87
2018-10-06T20:13:35.896Z,1.90
2018-10-06T20:16:04.115Z,1.60
2018-10-06T20:18:32.283Z,1.77
2018-10-06T20:21:00.636Z,1.60
2018-10-06T20:23:28.792Z,1.57
2018-10-06T20:25:57.737Z,2.12
2018-10-06T20:28:25.905Z,1.75
2018-10-06T20:30:54.098Z,2.30
2018-10-06T20:33:22.619Z,2.50
2018-10-06T20:35:50.816Z,2.05
2018-10-06T20:38:18.967Z,1.40
2018-10-06T20:40:47.120Z,1.47
2018-10-06T20:43:15.319Z,1.45
2018-10-06T20:45:43.571Z,1.25
2018-10-06T20:48:11.899Z,1.72
2018-10-06T20:50:40.043Z,1.00
2018-10-06T20:53:08.409Z,1.65
2018-10-06T20:55:36.556Z,1.80
2018-10-06T20:58:04.708Z,1.95
2018-10-06T21:00:32.867Z,2.05
2018-10-06T21:03:01.107Z,1.80
2018-10-06T21:05:29.333Z,2.15
2018-10-06T21:07:57.512Z,1.60
2018-10-06T21:10:25.663Z,2.10
2018-10-06T21:12:53.812Z,2.83
2018-10-06T21:15:21.983Z,2.10
2018-10-06T21:17:51.113Z,2.02
2018-10-06T21:20:19.275Z,1.45
2018-10-06T21:22:47.434Z,1.40
2018-10-06T21:25:15.580Z,1.52
2018-10-06T21:27:43.795Z,1.50
2018-10-06T21:30:12.092Z,1.35
2018-10-06T21:32:40.237Z,1.55
2018-10-06T21:35:08.436Z,1.62
2018-10-06T21:37:36.577Z,1.60
2018-10-06T21:40:04.731Z,1.60
2018-10-06T21:42:32.881Z,1.70
2018-10-06T21:45:01.030Z,1.65
2018-10-06T21:47:29.594Z,1.67
2018-10-06T21:49:57.747Z,1.60
2018-10-06T21:52:25.904Z,1.50
2018-10-06T21:54:54.083Z,1.47
2018-10-06T21:57:22.236Z,2.00
2018-10-06T21:59:50.652Z,1.50
2018-10-06T22:02:18.810Z,1.60
2018-10-06T22:04:47.187Z,1.67
2018-10-06T22:07:15.375Z,1.75
2018-10-06T22:09:43.527Z,2.27
2018-10-06T22:12:11.691Z,1.60
2018-10-06T22:14:40.297Z,1.75
2018-10-06T22:17:08.479Z,1.50
2018-10-06T22:19:36.756Z,2.15
2018-10-06T22:22:04.916Z,1.82
2018-10-06T22:24:33.108Z,1.50
2018-10-06T22:27:01.300Z,1.75
2018-10-06T22:29:29.880Z,1.92
2018-10-06T22:31:58.031Z,1.98
2018-10-06T22:34:26.183Z,1.72
2018-10-06T22:36:54.370Z,1.60
2018-10-06T22:39:22.648Z,1.40
2018-10-06T22:41:50.850Z,1.62
2018-10-06T22:44:19.206Z,1.65
2018-10-06T22:46:47.811Z,1.60
2018-10-06T22:49:15.960Z,1.80
2018-10-06T22:51:44.119Z,2.65
2018-10-06T22:54:12.268Z,2.50
2018-10-06T22:56:40.479Z,2.55
2018-10-06T22:59:08.639Z,2.45
2018-10-06T23:01:36.797Z,2.40
2018-10-06T23:04:05.340Z,1.92
2018-10-06T23:06:33.494Z,1.80
2018-10-06T23:09:01.784Z,1.57
2018-10-06T23:11:29.945Z,1.57
2018-10-06T23:13:58.109Z,1.20
2018-10-06T23:16:26.271Z,1.70
2018-10-06T23:18:54.450Z,1.60
2018-10-06T23:21:22.955Z,1.52
2018-10-06T23:23:51.111Z,1.67
2018-10-06T23:26:19.483Z,1.32
2018-10-06T23:28:47.768Z,1.70
2018-10-06T23:31:16.447Z,1.45
2018-10-06T23:33:45.114Z,1.27
2018-10-06T23:36:13.260Z,1.50
2018-10-06T23:38:41.431Z,2.33
2018-10-06T23:41:09.587Z,1.60
2018-10-06T23:43:37.727Z,1.60
2018-10-06T23:46:05.880Z,1.60
2018-10-06T23:48:34.028Z,2.12
2018-10-06T23:51:02.203Z,2.00
2018-10-06T23:53:30.359Z,2.30
2018-10-06T23:55:58.503Z,2.20
2018-10-06T23:58:26.655Z,2.77
